Frederiksted, Virgin Islands
Current Conditions -  °F | °C
As of 5:53 PM on Thursday 27 Nov 2014 (Local Time) from TJNR Reporting Station
Overcast Overcast  
Wind Chill: 79°   Ceiling: 7000
Heat Index: 82°   Visibility: 10mi
Dew Point: 69°   Wind: 3mph
Humidity: 72%   Direction: 40°NE
Pressure: 29.96"   Gusts: NA
Location:  17.71°N, 64.86°W
Report Text: TJNR 272153Z AUTO 04003KT 10SM OVC070 26/21 A2996 RMK AO2 SLP144 T02610206 $
Loading
Personal Weather Stations






























Interactive Weather Map New forecast layout! Learn more

10-Day Weather Forecast

Advertisements
Track Severe Weather on mobile